createdAt,value
2019-05-23T00:02:30.095Z,98705.05
2019-05-23T00:07:55.270Z,98713.22
2019-05-23T00:13:35.708Z,98719.86
2019-05-23T00:18:44.687Z,98714.18
2019-05-23T00:23:51.944Z,98708.61
2019-05-23T00:29:09.491Z,98711.27
2019-05-23T00:34:11.555Z,98710.64
2019-05-23T00:39:18.847Z,98713.00
2019-05-23T00:44:26.027Z,98711.80
2019-05-23T00:49:33.761Z,98714.09
2019-05-23T00:54:40.299Z,98717.57
2019-05-23T00:59:47.610Z,98714.97
2019-05-23T01:04:54.508Z,98712.92
2019-05-23T01:10:01.697Z,98722.32
2019-05-23T01:15:10.168Z,98722.63
2019-05-23T01:20:21.160Z,98730.91
2019-05-23T01:25:29.248Z,98724.28
2019-05-23T01:30:41.919Z,98723.92
2019-05-23T01:35:49.734Z,98724.53
2019-05-23T01:40:56.514Z,98723.92
2019-05-23T01:46:04.608Z,98728.56
2019-05-23T01:51:11.316Z,98727.64
2019-05-23T01:56:18.501Z,98725.52
2019-05-23T02:01:25.716Z,98722.77
2019-05-23T02:06:32.514Z,98730.70
2019-05-23T02:11:40.261Z,98734.38
2019-05-23T02:16:47.383Z,98734.72
2019-05-23T02:21:53.982Z,98728.25
2019-05-23T02:27:01.685Z,98730.44
2019-05-23T02:32:10.045Z,98730.14
2019-05-23T02:37:35.644Z,98730.44
2019-05-23T02:42:46.121Z,98724.45
2019-05-23T02:47:55.686Z,98721.00
2019-05-23T02:53:03.247Z,98721.31
2019-05-23T02:58:31.201Z,98719.79
2019-05-23T03:03:40.095Z,98722.66
2019-05-23T03:08:48.835Z,98720.70
2019-05-23T03:13:56.141Z,98717.06
2019-05-23T03:19:07.748Z,98716.55
2019-05-23T03:24:15.205Z,98708.62
2019-05-23T03:29:23.034Z,98709.77
2019-05-23T03:34:33.493Z,98709.62
2019-05-23T03:39:40.379Z,98706.31
2019-05-23T03:44:48.487Z,98706.30
2019-05-23T03:49:55.566Z,98704.47
2019-05-23T03:55:02.531Z,98716.70
2019-05-23T04:00:14.214Z,98713.37
2019-05-23T04:05:22.265Z,98708.20
2019-05-23T04:10:28.895Z,98712.81
2019-05-23T04:15:36.066Z,98710.48
2019-05-23T04:20:42.756Z,98708.77
2019-05-23T04:25:49.574Z,98708.75
2019-05-23T04:30:56.298Z,98705.83
2019-05-23T04:36:03.083Z,98717.22
2019-05-23T04:41:10.025Z,98708.65
2019-05-23T04:46:16.840Z,98709.65
2019-05-23T04:51:24.108Z,98717.64
2019-05-23T04:56:31.195Z,98709.03
2019-05-23T05:01:39.203Z,98711.09
2019-05-23T05:06:47.766Z,98714.36
2019-05-23T05:11:54.813Z,98719.92
2019-05-23T05:17:02.025Z,98723.36
2019-05-23T05:22:08.745Z,98727.41
2019-05-23T05:27:17.129Z,98728.94
2019-05-23T05:32:23.961Z,98738.88
2019-05-23T05:37:31.293Z,98742.31
2019-05-23T05:42:39.322Z,98746.38
2019-05-23T05:47:46.421Z,98749.45
2019-05-23T05:52:53.580Z,98757.26
2019-05-23T05:58:00.149Z,98749.66
2019-05-23T06:03:07.662Z,98756.08
2019-05-23T06:08:14.879Z,98754.91
2019-05-23T06:13:21.863Z,98752.56
2019-05-23T06:18:28.917Z,98763.35
2019-05-23T06:23:36.671Z,98763.36
2019-05-23T06:28:44.658Z,98766.25
2019-05-23T06:33:52.206Z,98760.75
2019-05-23T06:38:59.609Z,98758.48
2019-05-23T06:44:07.547Z,98757.30
2019-05-23T06:49:14.250Z,98753.81
2019-05-23T06:54:20.873Z,98754.03
2019-05-23T06:59:27.458Z,98754.56
2019-05-23T07:04:34.178Z,98759.34
2019-05-23T07:09:40.971Z,98754.30
2019-05-23T07:14:47.536Z,98757.08
2019-05-23T07:19:54.268Z,98751.42
2019-05-23T07:25:01.168Z,98758.98
2019-05-23T07:30:13.696Z,98759.34
2019-05-23T07:35:20.650Z,98765.03
2019-05-23T07:40:29.234Z,98770.82
2019-05-23T07:45:50.063Z,98773.91
2019-05-23T07:50:56.747Z,98770.75
2019-05-23T07:56:04.400Z,98774.36
2019-05-23T08:01:13.825Z,98781.16
2019-05-23T08:06:20.981Z,98776.38
2019-05-23T08:11:27.955Z,98767.02
2019-05-23T08:16:34.983Z,98763.77
2019-05-23T08:21:41.764Z,98765.45
2019-05-23T08:26:49.858Z,98759.81
2019-05-23T08:31:57.096Z,98758.01
2019-05-23T08:37:04.652Z,98763.22
2019-05-23T08:42:12.913Z,98763.47
2019-05-23T08:47:19.941Z,98765.02
2019-05-23T08:52:26.570Z,98761.70
2019-05-23T08:57:33.435Z,98761.63
2019-05-23T09:02:41.524Z,98767.66
2019-05-23T09:07:48.912Z,98759.15
2019-05-23T09:12:55.892Z,98754.88
2019-05-23T09:18:02.969Z,98761.88
2019-05-23T09:23:10.163Z,98762.36
2019-05-23T09:28:17.209Z,98764.89
2019-05-23T09:33:23.847Z,98770.22
2019-05-23T09:38:30.583Z,98761.47
2019-05-23T09:43:37.206Z,98756.94
2019-05-23T09:48:44.302Z,98754.21
2019-05-23T09:53:51.152Z,98742.63
2019-05-23T09:58:57.801Z,98742.46
2019-05-23T10:04:05.183Z,98750.87
2019-05-23T10:09:13.974Z,98744.32
2019-05-23T10:14:24.501Z,98739.80
2019-05-23T10:19:31.075Z,98744.80
2019-05-23T10:24:37.808Z,98735.72
2019-05-23T10:29:51.906Z,98735.28
2019-05-23T10:34:58.471Z,98737.88
2019-05-23T10:40:06.144Z,98725.28
2019-05-23T10:45:12.956Z,98717.59
2019-05-23T10:50:19.600Z,98711.82
2019-05-23T10:55:26.455Z,98711.47
2019-05-23T11:00:33.897Z,98709.66
2019-05-23T11:05:40.755Z,98706.37
2019-05-23T11:10:47.642Z,98700.04
2019-05-23T11:15:54.473Z,98698.94
2019-05-23T11:21:01.151Z,98695.01
2019-05-23T11:26:09.601Z,98686.95
2019-05-23T11:31:16.967Z,98696.70
2019-05-23T11:36:35.761Z,98688.77
2019-05-23T11:41:33.894Z,98670.24
2019-05-23T11:46:41.043Z,98682.88
2019-05-23T11:51:47.796Z,98671.59
2019-05-23T11:56:55.305Z,98676.70
2019-05-23T12:02:11.103Z,98671.45
2019-05-23T12:07:27.454Z,98670.30
2019-05-23T12:12:34.203Z,98664.30
2019-05-23T12:17:41.864Z,98669.66
2019-05-23T12:22:49.032Z,98670.19
2019-05-23T12:27:55.758Z,98669.35
2019-05-23T12:33:02.330Z,98663.16
2019-05-23T12:38:09.602Z,98663.38
2019-05-23T12:43:17.752Z,98656.31
2019-05-23T12:48:35.699Z,98653.03
2019-05-23T12:53:42.704Z,98647.34
2019-05-23T12:58:50.320Z,98642.01
2019-05-23T13:03:57.417Z,98645.72
2019-05-23T13:09:05.197Z,98648.69
2019-05-23T13:14:11.978Z,98646.66
2019-05-23T13:19:18.746Z,98638.91
2019-05-23T13:24:25.536Z,98631.53
2019-05-23T13:29:32.627Z,98636.37
2019-05-23T13:34:39.268Z,98625.80
2019-05-23T13:39:46.288Z,98628.16
2019-05-23T13:44:53.004Z,98634.78
2019-05-23T13:49:59.886Z,98624.91
2019-05-23T13:55:07.313Z,98627.22
2019-05-23T14:00:15.332Z,98623.16
2019-05-23T14:05:22.300Z,98624.58
2019-05-23T14:10:29.323Z,98624.20
2019-05-23T14:15:40.874Z,98620.70
2019-05-23T14:20:48.400Z,98618.73
2019-05-23T14:25:56.895Z,98609.94
2019-05-23T14:31:09.179Z,98610.86
2019-05-23T14:36:24.058Z,98615.17
2019-05-23T14:41:45.389Z,98605.30
2019-05-23T14:47:06.429Z,98599.10
2019-05-23T14:52:21.016Z,98601.23
2019-05-23T14:57:27.701Z,98605.58
2019-05-23T15:02:35.093Z,98592.05
2019-05-23T15:07:42.833Z,98587.20
2019-05-23T15:12:49.510Z,98588.18
2019-05-23T15:17:56.055Z,98585.86
2019-05-23T15:23:02.752Z,98579.31
2019-05-23T15:28:09.899Z,98580.32
2019-05-23T15:33:16.595Z,98579.21
2019-05-23T15:38:26.025Z,98580.70
2019-05-23T15:43:40.394Z,98576.89
2019-05-23T15:48:48.097Z,98575.34
2019-05-23T15:54:12.020Z,98573.15
2019-05-23T15:59:30.906Z,98564.52
2019-05-23T16:04:41.097Z,98562.70
2019-05-23T16:09:48.088Z,98548.49
2019-05-23T16:14:54.696Z,98551.91
2019-05-23T16:20:01.354Z,98549.91
2019-05-23T16:25:09.715Z,98548.84
2019-05-23T16:30:16.572Z,98545.91
2019-05-23T16:35:23.220Z,98549.77
2019-05-23T16:40:29.850Z,98543.80
2019-05-23T16:45:36.567Z,98546.50
2019-05-23T16:50:43.312Z,98546.51
2019-05-23T16:56:05.751Z,98544.47
2019-05-23T17:01:24.732Z,98547.47
2019-05-23T17:06:42.047Z,98541.45
2019-05-23T17:11:55.653Z,98542.11
2019-05-23T17:17:48.968Z,98544.93
2019-05-23T17:22:47.526Z,98540.99
2019-05-23T17:28:11.904Z,98540.16
2019-05-23T17:33:19.987Z,98543.20
2019-05-23T17:38:28.574Z,98541.02
2019-05-23T17:43:37.804Z,98533.38
2019-05-23T17:48:47.920Z,98539.19
2019-05-23T17:53:55.595Z,98538.56
2019-05-23T17:59:02.289Z,98532.35
2019-05-23T18:04:09.559Z,98527.14
2019-05-23T18:09:17.110Z,98518.06
2019-05-23T18:14:23.883Z,98522.92
2019-05-23T18:19:30.549Z,98532.09
2019-05-23T18:24:39.437Z,98536.20
2019-05-23T18:29:48.049Z,98536.61
2019-05-23T18:34:56.522Z,98538.98
2019-05-23T18:40:03.613Z,98532.41
2019-05-23T18:45:12.283Z,98536.45
2019-05-23T18:50:21.400Z,98546.67
2019-05-23T18:55:28.146Z,98551.91
2019-05-23T19:01:04.206Z,98561.28
2019-05-23T19:06:10.846Z,98568.41
2019-05-23T19:11:21.226Z,98571.65
2019-05-23T19:16:26.709Z,98578.24
2019-05-23T19:21:34.378Z,98580.66
2019-05-23T19:26:41.716Z,98585.73
2019-05-23T19:31:49.317Z,98591.84
2019-05-23T19:36:56.339Z,98593.88
2019-05-23T19:42:03.399Z,98593.28
2019-05-23T19:47:10.041Z,98587.15
2019-05-23T19:52:17.112Z,98584.15
2019-05-23T19:57:23.864Z,98578.06
2019-05-23T20:02:44.970Z,98580.34
2019-05-23T20:07:51.807Z,98576.82
2019-05-23T20:12:58.430Z,98571.98
2019-05-23T20:18:06.843Z,98572.17
2019-05-23T20:23:16.157Z,98564.73
2019-05-23T20:28:23.419Z,98572.08
2019-05-23T20:33:30.769Z,98569.45
2019-05-23T20:38:37.409Z,98576.55
2019-05-23T20:43:44.019Z,98573.75
2019-05-23T20:48:51.714Z,98573.52
2019-05-23T20:53:58.289Z,98579.23
2019-05-23T20:59:05.691Z,98565.68
2019-05-23T21:04:12.298Z,98567.67
2019-05-23T21:09:18.925Z,98563.62
2019-05-23T21:14:25.484Z,98556.87
2019-05-23T21:19:32.006Z,98558.34
2019-05-23T21:24:38.720Z,98552.27
2019-05-23T21:29:45.319Z,98545.03
2019-05-23T21:34:51.818Z,98545.03
2019-05-23T21:39:58.558Z,98544.90
2019-05-23T21:45:06.041Z,98547.45
2019-05-23T21:50:13.400Z,98544.47
2019-05-23T21:55:32.955Z,98549.69
2019-05-23T22:01:27.111Z,98549.44
2019-05-23T22:06:35.735Z,98539.66
2019-05-23T22:11:42.763Z,98543.79
2019-05-23T22:21:55.131Z,98538.91
2019-05-23T22:27:01.741Z,98537.89
2019-05-23T22:32:10.226Z,98529.73
2019-05-23T22:37:30.876Z,98527.21
2019-05-23T22:42:37.713Z,98523.47
2019-05-23T22:47:44.445Z,98523.14
2019-05-23T22:52:50.980Z,98521.95
2019-05-23T22:57:57.565Z,98520.66
2019-05-23T23:03:04.490Z,98519.98
2019-05-23T23:08:11.220Z,98523.02
2019-05-23T23:13:17.946Z,98514.52
2019-05-23T23:18:24.489Z,98516.73
2019-05-23T23:23:31.073Z,98520.40
2019-05-23T23:28:38.048Z,98517.63
2019-05-23T23:33:44.603Z,98521.66
2019-05-23T23:38:51.213Z,98519.48
2019-05-23T23:43:59.928Z,98520.00
2019-05-23T23:49:24.147Z,98522.71
2019-05-23T23:54:48.586Z,98517.09
2019-05-23T23:59:54.219Z,98523.34
